KIJX

Jacksonville Municipal Airport

Jacksonville, Illinois, USA
METAR KIJX 231615Z AUTO 27010KT 10SM OVC009 04/03 A3027 RMK AO2 T00410026
Observed Flight Rules
Feb-23 @ 16:15 UTC (23 minutes ago) Instrument Flight Rules
Wind Visibility Clouds
270° at 10 knots 10 miles
  • Overcast at 900' AGL
Temperatures Readings
Current 4°C / 39°F
Dewpoint 3°C / 37°F
Humidity 93%
Altimeter 30.27" Hg
Pressure 1025 hPa
Elevation 190
METAR KIJX 231615Z AUTO 27010KT 10SM OVC009 04/03 A3027 RMK AO2 T00410026
Observed Flight Rules
Feb-23 @ 16:15 UTC
(23 minutes ago)
IFR
Wind Visibility
270° at 10 knots 10 miles
Clouds
  • Overcast at 900' AGL
Temperature Dewpoint
4°C / 39°F 3°C / 37°F
Humidity Altimeter Pressure
93% 30.27" Hg 1025 hPa